Time;durP1;ratioP1;P1;durP2;ratioP2;P2;SDS_P1;SDS_P2;PMS_P1;PMS_P2;Temp;Humidity;BMP_temperature;BMP_pressure;BME280_temperature;BME280_humidity;BME280_pressure;Samples;Min_cycle;Max_cycle;Signal;HPM_P1;HPM_P2
2023/04/05 00:01:34;;;;;;;6.15;5.60;;;;;;;9.15;59.71;98853.50;4995217;28;20133;-76
2023/04/05 00:04:01;;;;;;;5.80;5.30;;;;;;;9.08;59.85;98849.16;4995743;28;20098;-76
2023/04/05 00:06:28;;;;;;;5.80;5.30;;;;;;;8.76;59.70;98798.53;4995373;28;20030;-76
2023/04/05 00:08:58;;;;;;;6.10;5.60;;;;;;;8.71;59.74;98800.09;4995540;28;20026;-76
2023/04/05 00:11:28;;;;;;;5.97;5.38;;;;;;;9.02;59.65;98847.28;4995168;28;20068;-76
2023/04/05 00:13:54;;;;;;;6.00;5.50;;;;;;;8.18;59.42;98708.16;4995063;28;20455;-76
2023/04/05 00:16:20;;;;;;;5.63;4.95;;;;;;;8.94;59.48;98823.69;4995049;28;20049;-76
2023/04/05 00:18:50;;;;;;;5.60;5.10;;;;;;;8.42;59.45;98759.69;4995005;28;20083;-77
2023/04/05 00:21:16;;;;;;;5.63;5.15;;;;;;;9.11;59.26;98843.53;4994948;28;20105;-76
2023/04/05 00:23:43;;;;;;;5.63;5.13;;;;;;;9.01;59.18;98851.72;4994805;28;20101;-77
2023/04/05 00:26:10;;;;;;;5.10;4.60;;;;;;;9.10;58.88;98852.44;4994872;28;20022;-77
2023/04/05 00:28:35;;;;;;;5.65;5.15;;;;;;;8.62;58.61;98777.53;4994837;28;20089;-76
2023/04/05 00:31:01;;;;;;;6.40;5.80;;;;;;;8.89;58.84;98846.09;4994708;28;20460;-76
2023/04/05 00:33:26;;;;;;;6.18;5.68;;;;;;;8.82;59.04;98853.09;4994848;28;20037;-76
2023/04/05 00:35:51;;;;;;;5.72;5.22;;;;;;;8.93;59.04;98866.81;4994766;28;20022;-76
2023/04/05 00:38:17;;;;;;;6.10;5.60;;;;;;;8.36;58.77;98776.19;4994814;28;20033;-76
2023/04/05 00:40:42;;;;;;;5.78;5.28;;;;;;;8.94;58.75;98866.63;4994781;28;20037;-75
2023/04/05 00:43:08;;;;;;;6.00;5.40;;;;;;;7.95;58.63;98702.16;4977146;28;20105;-76
2023/04/05 00:45:33;;;;;;;5.78;5.28;;;;;;;8.72;58.42;98838.56;4994778;28;20030;-76
2023/04/05 00:47:59;;;;;;;5.85;5.35;;;;;;;8.78;58.43;98862.34;4994539;28;20026;-76
2023/04/05 00:50:29;;;;;;;6.43;5.85;;;;;;;8.91;58.16;98883.56;4994447;28;20023;-76
2023/04/05 00:52:56;;;;;;;6.07;5.47;;;;;;;8.92;58.01;98879.16;4994621;28;20026;-76
2023/04/05 00:55:22;;;;;;;5.80;5.20;;;;;;;8.78;57.96;98867.63;4994402;28;20030;-76
2023/04/05 00:57:48;;;;;;;5.18;4.78;;;;;;;7.94;58.15;98739.97;4993783;28;20546;-76
2023/04/05 01:00:14;;;;;;;6.15;5.55;;;;;;;8.31;57.83;98801.38;4994148;28;20046;-76
2023/04/05 01:02:48;;;;;;;6.28;5.78;;;;;;;7.83;57.62;98724.66;4993135;28;20396;-77
2023/04/05 01:06:07;;;;;;;5.78;5.28;;;;;;;8.86;57.77;98870.16;4994307;28;20109;-76
2023/04/05 01:08:37;;;;;;;6.40;5.90;;;;;;;8.86;57.76;98861.44;4972714;28;20031;-76
2023/04/05 01:11:05;;;;;;;5.97;5.40;;;;;;;8.00;57.57;98726.09;5005708;28;20042;-76
2023/04/05 01:13:31;;;;;;;6.22;5.72;;;;;;;8.89;57.72;98893.47;4994352;28;20105;-76
2023/04/05 01:15:57;;;;;;;6.15;5.55;;;;;;;8.93;57.62;98906.28;4994266;28;20034;-76
2023/04/05 01:18:24;;;;;;;6.63;6.03;;;;;;;8.04;57.84;98745.75;4994042;28;20022;-76
2023/04/05 01:21:28;;;;;;;6.65;6.05;;;;;;;7.91;57.12;98716.66;4994225;28;20454;-76
2023/04/05 01:24:13;;;;;;;7.10;6.45;;;;;;;8.92;56.82;98873.88;4985696;28;20113;-76
2023/04/05 01:26:55;;;;;;;6.60;5.97;;;;;;;8.94;57.35;98879.78;4992690;28;20026;-76
2023/04/05 01:29:31;;;;;;;6.57;5.95;;;;;;;8.71;57.67;98850.09;4993896;28;20026;-76
2023/04/05 01:32:05;;;;;;;6.55;5.95;;;;;;;8.08;57.73;98765.44;4993601;28;20046;-76
2023/04/05 01:34:46;;;;;;;6.68;6.07;;;;;;;8.88;57.35;98880.50;4993516;28;20022;-77
2023/04/05 01:37:17;;;;;;;6.35;5.78;;;;;;;8.85;57.83;98880.84;4993667;28;20018;-77
2023/04/05 01:39:46;;;;;;;7.00;6.40;;;;;;;8.64;57.51;98844.75;4993700;28;20162;-76
2023/04/05 01:42:11;;;;;;;6.80;6.20;;;;;;;8.83;57.48;98875.78;4992259;28;20416;-76
2023/04/05 01:44:37;;;;;;;6.80;6.20;;;;;;;8.17;58.09;98774.88;4993387;28;20026;-76
2023/04/05 01:47:02;;;;;;;6.65;6.03;;;;;;;7.85;57.93;98731.34;4993324;28;20036;-76
2023/04/05 01:49:28;;;;;;;7.22;6.53;;;;;;;8.55;57.71;98849.28;4993375;28;20065;-76
2023/04/05 01:51:53;;;;;;;6.90;6.30;;;;;;;8.17;58.06;98781.94;4992050;28;20035;-76
2023/04/05 01:54:19;;;;;;;7.25;6.60;;;;;;;8.63;57.76;98869.44;4993234;28;20027;-76
2023/04/05 01:56:44;;;;;;;6.35;5.85;;;;;;;8.06;57.70;98806.88;4993339;28;20447;-77
2023/04/05 01:59:10;;;;;;;6.63;5.93;;;;;;;8.80;57.68;98934.03;4993267;28;20108;-77
2023/04/05 02:01:35;;;;;;;7.07;6.38;;;;;;;8.73;57.50;98884.94;4991794;28;20046;-76
2023/04/05 02:04:01;;;;;;;6.45;5.75;;;;;;;8.04;57.96;98785.19;4993254;28;20022;-76
2023/04/05 02:06:27;;;;;;;6.82;6.22;;;;;;;7.63;57.98;98712.03;4993116;28;20022;-76
2023/04/05 02:08:53;;;;;;;6.70;6.00;;;;;;;8.47;57.87;98840.69;4992124;28;20081;-77
2023/04/05 02:11:18;;;;;;;7.00;6.43;;;;;;;8.88;57.96;98901.56;4992819;28;20458;-76
2023/04/05 02:13:43;;;;;;;6.78;6.07;;;;;;;8.75;57.72;98888.22;4992958;28;20594;-75
2023/04/05 02:16:09;;;;;;;6.72;6.13;;;;;;;7.88;57.64;98748.56;4993013;28;20033;-77
2023/04/05 02:18:37;;;;;;;6.72;6.13;;;;;;;8.76;57.63;98890.66;4993005;28;20033;-76
2023/04/05 02:21:09;;;;;;;6.97;6.38;;;;;;;8.70;57.74;98888.75;4993129;28;20033;-76
2023/04/05 02:23:37;;;;;;;;;;;;;;;8.67;58.08;98912.00;4993277;28;20426;-76
2023/04/05 02:26:02;;;;;;;7.22;6.40;;;;;;;7.88;57.89;98769.59;4992807;28;20456;-76
2023/04/05 02:28:28;;;;;;;6.95;6.35;;;;;;;8.41;58.03;98858.00;4991573;28;20109;-76
2023/04/05 02:30:54;;;;;;;7.40;6.78;;;;;;;8.86;57.85;98922.78;4992549;28;20415;-76
2023/04/05 02:33:21;;;;;;;7.00;6.40;;;;;;;8.83;57.87;98920.53;4992526;28;20105;-76
2023/04/05 02:35:48;;;;;;;7.25;6.55;;;;;;;8.06;57.74;98798.97;4992470;28;20014;-77
2023/04/05 02:38:13;;;;;;;8.50;6.50;;;;;;;8.81;57.89;98925.16;4992786;28;20054;-76
2023/04/05 02:40:40;;;;;;;7.43;6.72;;;;;;;8.83;57.81;98924.97;4992624;28;20049;-76
2023/04/05 02:43:06;;;;;;;6.95;6.35;;;;;;;8.83;57.64;98930.22;4992410;28;20096;-76
2023/04/05 02:45:31;;;;;;;7.35;6.65;;;;;;;8.80;57.59;98931.41;4992437;28;20491;-76
2023/04/05 02:47:57;;;;;;;7.95;7.25;;;;;;;8.72;57.82;98915.72;4992366;28;20442;-76
2023/04/05 02:50:22;;;;;;;8.25;7.45;;;;;;;8.53;57.50;98882.03;4992491;28;20102;-76
2023/04/05 02:52:48;;;;;;;7.43;6.70;;;;;;;7.91;57.47;98798.97;4992284;28;20418;-77
2023/04/05 02:55:14;;;;;;;7.55;6.85;;;;;;;8.86;57.30;98943.03;4992366;28;20496;-76
2023/04/05 02:57:41;;;;;;;7.20;6.50;;;;;;;8.87;57.32;98936.78;4992397;28;20022;-76
2023/04/05 03:00:07;;;;;;;8.02;7.28;;;;;;;8.76;57.29;98927.50;4992194;28;20046;-76
2023/04/05 03:02:33;;;;;;;8.20;7.40;;;;;;;8.25;57.36;98851.06;4992206;28;20089;-77
2023/04/05 03:05:01;;;;;;;7.82;7.13;;;;;;;8.58;57.05;98898.09;4992070;28;20518;-76
2023/04/05 03:07:26;;;;;;;8.60;7.70;;;;;;;7.68;56.98;98771.09;4992057;28;20018;-76
2023/04/05 03:09:52;;;;;;;8.20;7.47;;;;;;;7.80;57.41;98809.91;4991882;28;20084;-76
2023/04/05 03:12:19;;;;;;;8.13;7.32;;;;;;;7.94;57.59;98824.06;4992230;28;20050;-76
2023/04/05 03:14:45;;;;;;;9.15;8.25;;;;;;;8.75;57.47;98941.66;4992042;28;20030;-77
2023/04/05 03:17:11;;;;;;;9.02;8.13;;;;;;;8.74;57.40;98934.78;4992006;28;20030;-76
2023/04/05 03:19:37;;;;;;;7.90;7.15;;;;;;;8.91;57.24;98973.09;4992109;28;20084;-77
2023/04/05 03:22:03;;;;;;;8.07;7.38;;;;;;;7.91;57.55;98801.59;4991973;28;20037;-76
2023/04/05 03:24:28;;;;;;;7.63;6.97;;;;;;;8.02;57.42;98837.13;4991973;28;20113;-77
2023/04/05 03:26:53;;;;;;;8.43;7.63;;;;;;;7.59;57.51;98781.69;4992021;28;20037;-76
2023/04/05 03:29:19;;;;;;;8.27;7.57;;;;;;;8.79;57.57;98969.25;4991871;28;20033;-76
2023/04/05 03:31:44;;;;;;;8.70;7.93;;;;;;;8.51;57.36;98942.75;4991877;28;20026;-76
2023/04/05 03:34:10;;;;;;;8.57;7.78;;;;;;;8.83;57.03;98965.28;4992139;28;20049;-76
2023/04/05 03:36:46;;;;;;;8.07;7.38;;;;;;;8.79;57.42;98969.25;4991949;28;20574;-76
2023/04/05 03:39:12;;;;;;;8.40;7.57;;;;;;;8.42;57.40;98906.16;4991877;28;20101;-76
2023/04/05 03:41:39;;;;;;;9.55;8.75;;;;;;;8.71;56.83;98955.38;4992214;28;20463;-76
2023/04/05 03:44:05;;;;;;;8.60;7.72;;;;;;;8.69;57.14;98952.91;4991873;28;20037;-76
2023/04/05 03:46:31;;;;;;;8.77;7.88;;;;;;;8.64;57.14;98942.13;4991803;28;20411;-76
2023/04/05 03:48:59;;;;;;;8.80;8.00;;;;;;;8.82;56.62;98968.09;4991565;28;20177;-76
2023/04/05 03:51:26;;;;;;;8.05;7.32;;;;;;;8.76;56.84;98985.41;4991611;28;20061;-76
2023/04/05 03:53:51;;;;;;;8.75;7.95;;;;;;;8.64;56.88;98960.53;4990370;28;20482;-76
2023/04/05 03:56:17;;;;;;;8.65;7.85;;;;;;;8.71;57.03;98971.97;4991667;28;20222;-76
2023/04/05 03:58:43;;;;;;;8.32;7.63;;;;;;;8.73;56.60;98977.06;4991816;28;20057;-76
2023/04/05 04:01:08;;;;;;;8.68;7.88;;;;;;;8.72;56.83;99005.19;4991574;28;20444;-76
2023/04/05 04:03:36;;;;;;;8.63;7.82;;;;;;;8.69;56.87;98987.13;4991560;28;20110;-76
2023/04/05 04:06:02;;;;;;;9.00;8.20;;;;;;;8.69;57.00;98988.94;4974088;28;20030;-76
2023/04/05 04:08:28;;;;;;;8.85;8.05;;;;;;;8.64;56.83;98994.75;4991469;28;20035;-76
2023/04/05 04:10:53;;;;;;;9.00;8.18;;;;;;;7.65;56.52;98841.41;4991276;28;20491;-77
2023/04/05 04:13:18;;;;;;;9.57;8.43;;;;;;;8.55;56.62;98995.81;4991303;28;20517;-76
2023/04/05 04:15:45;;;;;;;9.02;8.13;;;;;;;7.56;56.46;98839.84;4991391;28;20037;-76
2023/04/05 04:18:11;;;;;;;8.93;8.02;;;;;;;8.55;56.31;99001.09;4991399;28;20022;-76
2023/04/05 04:20:39;;;;;;;8.68;7.82;;;;;;;8.39;56.46;98993.34;4991572;28;20026;-76
2023/04/05 04:23:08;;;;;;;8.77;7.88;;;;;;;7.42;56.86;98843.19;4991163;28;20023;-76
2023/04/05 04:25:35;;;;;;;9.98;8.98;;;;;;;8.41;56.39;98991.34;4991252;28;20105;-76
2023/04/05 04:28:03;;;;;;;9.50;8.60;;;;;;;8.40;56.67;99008.13;4991253;28;20058;-76
2023/04/05 04:30:28;;;;;;;9.50;8.60;;;;;;;8.38;56.29;99000.41;4973701;28;20027;-76
2023/04/05 04:32:54;;;;;;;8.88;8.07;;;;;;;8.39;56.49;99011.75;4993686;28;20030;-76
2023/04/05 04:35:26;;;;;;;8.98;8.15;;;;;;;8.33;56.25;99010.63;4995147;28;20026;-76
2023/04/05 04:38:06;;;;;;;8.73;7.93;;;;;;;8.34;56.05;99022.81;4994795;28;20022;-76
2023/04/05 04:40:37;;;;;;;9.50;8.60;;;;;;;8.35;56.33;99018.34;4995007;28;20050;-76
2023/04/05 04:43:16;;;;;;;8.68;7.88;;;;;;;8.37;56.22;99022.44;4993411;28;20419;-76
2023/04/05 04:45:50;;;;;;;9.50;8.63;;;;;;;7.61;55.79;98916.31;4994641;28;20041;-76
2023/04/05 04:48:17;;;;;;;9.85;8.95;;;;;;;8.42;56.19;99030.63;4994477;28;20030;-76
2023/04/05 04:50:44;;;;;;;10.05;8.95;;;;;;;8.49;56.05;99026.28;4994415;28;20026;-76
2023/04/05 04:53:11;;;;;;;11.43;10.30;;;;;;;8.58;56.11;99030.50;4994393;28;20109;-76
2023/04/05 04:55:42;;;;;;;9.52;8.65;;;;;;;7.84;55.84;98920.75;4994730;28;20034;-76
2023/04/05 04:58:10;;;;;;;10.18;8.88;;;;;;;8.55;55.79;99030.84;4994300;28;20031;-76
2023/04/05 05:00:43;;;;;;;9.57;8.68;;;;;;;8.65;55.54;99033.22;4992926;28;20432;-77
2023/04/05 05:03:10;;;;;;;9.35;8.45;;;;;;;8.12;55.67;98953.38;4994338;28;20077;-76
2023/04/05 05:05:41;;;;;;;8.77;7.97;;;;;;;8.47;55.48;99006.41;4994326;28;20157;-76
2023/04/05 05:08:06;;;;;;;8.43;7.67;;;;;;;7.94;55.21;98934.47;4994170;28;20030;-77
2023/04/05 05:10:32;;;;;;;9.18;8.38;;;;;;;8.47;55.07;99001.16;4993882;28;20026;-76
2023/04/05 05:12:57;;;;;;;8.55;7.75;;;;;;;8.58;54.48;99003.34;4992837;28;20423;-76
2023/04/05 05:15:23;;;;;;;9.18;8.27;;;;;;;7.82;55.10;98896.44;4993940;28;20034;-77
2023/04/05 05:17:51;;;;;;;8.98;8.18;;;;;;;8.83;54.88;99040.78;4994030;28;20104;-77
2023/04/05 05:20:17;;;;;;;10.00;9.00;;;;;;;8.78;55.22;99054.50;4993498;28;20078;-76
2023/04/05 05:22:42;;;;;;;9.43;8.38;;;;;;;8.66;54.71;99028.78;4993519;28;20053;-77
2023/04/05 05:25:08;;;;;;;9.57;8.27;;;;;;;7.95;54.94;98905.38;4994072;28;20031;-76
2023/04/05 05:27:34;;;;;;;8.23;7.43;;;;;;;8.38;54.56;98965.41;4994047;28;20037;-77
2023/04/05 05:30:00;;;;;;;7.93;7.22;;;;;;;8.64;54.20;99018.44;4993563;28;20035;-76
2023/04/05 05:32:25;;;;;;;7.88;7.10;;;;;;;7.87;54.49;98887.03;4993852;28;20109;-77
2023/04/05 05:34:51;;;;;;;9.00;8.10;;;;;;;8.69;54.26;99020.53;4992213;28;20030;-77
2023/04/05 05:37:16;;;;;;;8.88;7.97;;;;;;;8.32;54.07;98951.09;4995645;28;20029;-76
2023/04/05 05:39:45;;;;;;;8.80;8.00;;;;;;;8.76;53.98;99017.00;5008729;28;20033;-76
2023/04/05 05:42:10;;;;;;;9.50;8.50;;;;;;;8.99;53.93;99059.09;4993256;28;20101;-76
2023/04/05 05:44:37;;;;;;;8.70;7.90;;;;;;;9.06;53.91;99051.28;4992175;28;20109;-76
2023/04/05 05:47:02;;;;;;;8.30;7.50;;;;;;;8.78;53.51;99003.66;4993897;28;20514;-76
2023/04/05 05:49:28;;;;;;;7.15;6.55;;;;;;;9.14;53.49;99051.22;4993280;28;20031;-77
2023/04/05 05:51:55;;;;;;;10.77;9.68;;;;;;;9.05;53.36;99025.97;4992518;28;20117;-77
2023/04/05 05:54:21;;;;;;;9.18;8.00;;;;;;;8.93;52.97;98995.81;4992287;28;20026;-77
2023/04/05 05:56:46;;;;;;;9.88;8.73;;;;;;;8.17;53.13;98892.38;4992909;28;20088;-76
2023/04/05 05:59:11;;;;;;;8.68;7.72;;;;;;;9.16;53.60;99054.47;4992953;28;20419;-77
2023/04/05 06:01:37;;;;;;;7.03;6.30;;;;;;;9.14;53.13;99046.75;4991850;28;20435;-76
2023/04/05 06:04:03;;;;;;;7.05;6.35;;;;;;;9.20;53.03;99075.00;4992517;28;20022;-76
2023/04/05 06:06:29;;;;;;;10.00;8.75;;;;;;;8.27;52.93;98933.22;4991667;28;20037;-76
2023/04/05 06:08:55;;;;;;;8.43;7.60;;;;;;;9.14;52.94;99054.66;4991755;28;20034;-76
2023/04/05 06:11:25;;;;;;;7.70;6.90;;;;;;;9.20;52.62;99053.94;4992600;28;20026;-77
2023/04/05 06:13:51;;;;;;;8.15;6.88;;;;;;;9.33;53.27;99063.03;4992887;28;20026;-76
2023/04/05 06:16:17;;;;;;;7.32;6.63;;;;;;;8.24;52.79;98885.44;4992704;28;20101;-76
2023/04/05 06:18:43;;;;;;;7.57;6.85;;;;;;;9.40;52.75;99069.19;4992832;28;20495;-76
2023/04/05 06:21:08;;;;;;;8.77;7.45;;;;;;;9.14;53.11;99038.84;4992102;28;20026;-76
2023/04/05 06:23:33;;;;;;;7.53;6.82;;;;;;;9.35;52.69;99074.19;4994722;28;20061;-76
2023/04/05 06:25:59;;;;;;;9.75;7.85;;;;;;;9.27;52.85;99064.56;4997123;28;20101;-76
2023/04/05 06:28:25;;;;;;;8.23;6.95;;;;;;;8.59;52.80;98966.34;4992441;28;20028;-76
2023/04/05 06:30:50;;;;;;;8.43;7.13;;;;;;;9.08;52.88;99058.00;4992090;28;20065;-76
2023/04/05 06:33:16;;;;;;;7.47;6.78;;;;;;;9.34;53.04;99091.81;4990224;28;20034;-76
2023/04/05 06:35:41;;;;;;;9.75;7.93;;;;;;;9.28;53.00;99076.75;4994529;28;20546;-76
2023/04/05 06:38:06;;;;;;;10.57;8.25;;;;;;;9.15;52.85;99040.50;4992230;28;20022;-76
2023/04/05 06:40:32;;;;;;;7.80;7.10;;;;;;;9.50;53.28;99098.72;5002421;28;20029;-77
2023/04/05 06:42:58;;;;;;;7.97;6.78;;;;;;;9.44;53.11;99091.56;4999458;28;20030;-76
2023/04/05 06:45:24;;;;;;;8.52;7.07;;;;;;;8.86;53.15;98993.88;5008473;28;20419;-76
2023/04/05 06:47:49;;;;;;;8.40;7.03;;;;;;;9.59;52.63;99097.63;4998671;28;20026;-76
2023/04/05 06:50:15;;;;;;;8.13;7.40;;;;;;;9.23;52.82;99027.22;4999820;28;20034;-76
2023/04/05 06:52:40;;;;;;;8.18;7.30;;;;;;;9.40;52.71;99033.13;4994426;28;20403;-76
2023/04/05 06:55:06;;;;;;;8.25;7.25;;;;;;;9.07;52.70;98969.47;4991571;28;20493;-76
2023/04/05 06:57:33;;;;;;;8.65;6.70;;;;;;;9.98;52.62;99105.25;4995418;28;20042;-76
2023/04/05 06:59:58;;;;;;;8.40;7.22;;;;;;;10.10;52.38;99105.59;5000264;28;20038;-76
2023/04/05 07:02:24;;;;;;;7.65;6.93;;;;;;;10.02;52.38;99079.31;4990369;28;20038;-76
2023/04/05 07:04:49;;;;;;;7.75;6.90;;;;;;;9.30;51.96;98966.72;4990438;28;20026;-77
2023/04/05 07:07:15;;;;;;;7.53;6.20;;;;;;;10.22;52.28;99109.41;4987541;28;20100;-76
2023/04/05 07:09:41;;;;;;;9.05;6.90;;;;;;;10.13;51.95;99100.75;5006422;28;20511;-76
2023/04/05 07:12:07;;;;;;;8.32;7.53;;;;;;;9.36;51.83;98976.53;4991617;28;20030;-77
2023/04/05 07:14:34;;;;;;;6.60;6.00;;;;;;;10.23;51.55;99137.44;4990624;28;20589;-76
2023/04/05 07:17:00;;;;;;;5.82;5.32;;;;;;;10.14;51.20;99109.50;4989662;28;20491;-77
2023/04/05 07:19:26;;;;;;;7.80;7.00;;;;;;;10.12;51.23;99106.22;4987717;28;20154;-77
2023/04/05 07:21:52;;;;;;;8.45;6.28;;;;;;;10.31;51.22;99125.94;4987038;28;20548;-76
2023/04/05 07:24:18;;;;;;;6.63;5.75;;;;;;;10.21;50.84;99113.06;4986697;28;20062;-77
2023/04/05 07:26:43;;;;;;;6.57;5.95;;;;;;;10.06;50.63;99093.78;4994447;28;20069;-75
2023/04/05 07:29:10;;;;;;;6.70;5.45;;;;;;;10.33;50.33;99119.47;4989536;28;20044;-76
2023/04/05 07:31:37;;;;;;;7.60;5.38;;;;;;;9.26;50.22;98960.19;4995614;28;20496;-76
2023/04/05 07:34:03;;;;;;;8.48;7.18;;;;;;;10.41;50.77;99134.41;4989611;28;20034;-76
2023/04/05 07:36:29;;;;;;;7.47;6.68;;;;;;;10.39;50.88;99129.28;4989583;28;20514;-76
2023/04/05 07:38:56;;;;;;;9.25;6.45;;;;;;;10.15;50.98;99082.09;4989445;28;20061;-75
2023/04/05 07:41:23;;;;;;;9.10;6.45;;;;;;;10.53;50.55;99148.75;4986992;28;20443;-76
2023/04/05 07:43:48;;;;;;;11.00;6.82;;;;;;;10.56;50.78;99147.56;4991161;28;20499;-75
2023/04/05 07:46:14;;;;;;;9.25;6.00;;;;;;;10.38;49.92;99111.81;4987213;28;20038;-76
2023/04/05 07:48:40;;;;;;;7.05;5.80;;;;;;;10.56;50.27;99153.66;4980428;28;20041;-77
2023/04/05 07:51:07;;;;;;;5.85;4.45;;;;;;;10.14;49.52;99109.50;4992078;28;20407;-76
2023/04/05 07:53:33;;;;;;;5.97;5.38;;;;;;;10.40;49.49;99141.50;4999547;28;20034;-76
2023/04/05 07:56:05;;;;;;;6.32;5.72;;;;;;;10.22;49.14;99095.41;4994111;28;20034;-76
2023/04/05 07:58:31;;;;;;;6.55;5.38;;;;;;;10.59;49.19;99158.56;4990781;28;20073;-75
2023/04/05 08:01:01;;;;;;;6.78;6.10;;;;;;;10.40;49.07;99112.47;4992413;28;20132;-74
2023/04/05 08:03:28;;;;;;;5.25;4.75;;;;;;;10.71;49.18;99153.59;4993921;28;20038;-75
2023/04/05 08:05:54;;;;;;;6.25;5.65;;;;;;;10.74;48.86;99161.97;5001702;28;20030;-75
2023/04/05 08:08:20;;;;;;;5.28;4.78;;;;;;;10.74;48.48;99156.69;4993106;28;20487;-75
2023/04/05 08:10:45;;;;;;;5.35;4.90;;;;;;;10.45;48.87;99114.56;4993156;28;20045;-74
2023/04/05 08:13:11;;;;;;;5.35;4.50;;;;;;;10.66;48.88;99150.69;4993260;28;20022;-75
2023/04/05 08:15:36;;;;;;;5.20;4.80;;;;;;;9.89;48.48;99035.16;4992588;28;20034;-76
2023/04/05 08:18:02;;;;;;;5.88;5.28;;;;;;;10.25;48.66;99074.75;4994537;28;20105;-75
2023/04/05 08:20:27;;;;;;;5.40;4.90;;;;;;;9.95;48.55;99031.78;4994551;28;20022;-76
2023/04/05 08:22:53;;;;;;;6.07;5.55;;;;;;;10.92;48.75;99155.41;4992229;28;20034;-75
2023/04/05 08:25:18;;;;;;;5.10;4.63;;;;;;;9.82;48.48;98950.72;4991289;28;20415;-75
2023/04/05 08:27:44;;;;;;;6.80;5.70;;;;;;;11.20;48.38;99160.75;4991918;28;20496;-75
2023/04/05 08:30:10;;;;;;;6.40;5.80;;;;;;;10.38;48.34;99034.47;4994350;28;20506;-75
2023/04/05 08:32:35;;;;;;;6.32;5.70;;;;;;;11.20;47.92;99135.16;4992368;28;20048;-75
2023/04/05 08:35:01;;;;;;;6.20;5.43;;;;;;;10.17;48.08;98970.13;4993128;28;20041;-74
2023/04/05 08:37:26;;;;;;;5.93;5.40;;;;;;;11.38;47.85;99164.56;4993439;28;20427;-75
2023/04/05 08:39:52;;;;;;;7.22;6.15;;;;;;;11.39;47.59;99162.72;4994291;28;20102;-75
2023/04/05 08:42:25;;;;;;;6.75;6.05;;;;;;;11.38;47.38;99167.22;4994296;28;20075;-75
2023/04/05 08:44:51;;;;;;;7.85;7.05;;;;;;;11.43;47.68;99158.69;4993335;28;20117;-75
2023/04/05 08:47:21;;;;;;;7.15;6.32;;;;;;;11.30;47.26;99133.00;4991488;28;20026;-76
2023/04/05 08:49:47;;;;;;;6.63;5.97;;;;;;;11.26;47.53;99141.50;4993593;28;20506;-75
2023/04/05 08:52:13;;;;;;;6.68;6.07;;;;;;;11.50;47.96;99171.97;4989569;28;20029;-75
2023/04/05 08:54:39;;;;;;;8.23;6.35;;;;;;;11.50;48.12;99171.97;4994960;28;20038;-76
2023/04/05 08:57:06;;;;;;;6.30;5.70;;;;;;;11.25;47.92;99132.75;4998741;28;20034;-76
2023/04/05 08:59:35;;;;;;;7.70;5.78;;;;;;;11.29;47.82;99141.94;4994656;28;20456;-75
2023/04/05 09:02:01;;;;;;;6.65;6.00;;;;;;;11.61;47.83;99182.00;4989908;28;20133;-75
2023/04/05 09:04:31;;;;;;;6.18;5.43;;;;;;;10.79;47.16;99061.88;4992087;28;20041;-76
2023/04/05 09:07:03;;;;;;;5.93;5.38;;;;;;;11.62;47.36;99202.97;4992619;28;20088;-76
2023/04/05 09:09:31;;;;;;;;;;;;;;;11.51;46.65;99190.28;4994000;28;20575;-76
2023/04/05 09:11:57;;;;;;;5.50;5.00;;;;;;;11.55;47.79;99172.19;4993475;28;20048;-76
2023/04/05 09:14:23;;;;;;;6.15;5.55;;;;;;;11.80;47.86;99194.56;4993216;28;20535;-77
2023/04/05 09:16:48;;;;;;;6.28;5.68;;;;;;;11.88;47.85;99193.59;4993418;28;20038;-76
2023/04/05 09:19:14;;;;;;;8.02;7.10;;;;;;;11.97;47.55;99195.91;4993207;28;20480;-76
2023/04/05 09:22:04;;;;;;;5.95;5.45;;;;;;;12.08;47.16;99195.34;4993889;28;20022;-76
2023/04/05 09:24:32;;;;;;;9.88;7.45;;;;;;;12.22;46.93;99195.41;4993755;28;20030;-76
2023/04/05 09:27:04;;;;;;;9.10;7.10;;;;;;;12.30;46.88;99200.53;4993836;28;20528;-76
2023/04/05 09:29:30;;;;;;;7.82;7.03;;;;;;;12.37;46.92;99196.09;4992495;28;20478;-76
2023/04/05 09:31:55;;;;;;;7.30;6.65;;;;;;;12.32;46.53;99201.97;4992865;28;20026;-76
2023/04/05 09:34:21;;;;;;;6.40;5.72;;;;;;;12.22;46.62;99179.53;4992863;28;20522;-75
2023/04/05 09:36:46;;;;;;;6.45;5.85;;;;;;;12.13;46.50;99160.38;4993197;28;20038;-75
2023/04/05 09:39:12;;;;;;;6.93;5.93;;;;;;;12.31;46.86;99197.69;4993508;28;20588;-75
2023/04/05 09:41:38;;;;;;;6.60;6.00;;;;;;;11.91;46.39;99148.25;4995863;28;20033;-75
2023/04/05 09:44:03;;;;;;;6.93;6.20;;;;;;;11.23;47.16;99057.31;5000009;28;20025;-75
2023/04/05 09:46:30;;;;;;;7.50;6.80;;;;;;;12.15;47.43;99208.63;4995867;28;20034;-75
2023/04/05 09:48:56;;;;;;;6.93;6.22;;;;;;;12.09;47.73;99204.94;4990614;28;20525;-75
2023/04/05 09:51:21;;;;;;;9.15;7.85;;;;;;;12.12;47.82;99190.50;4991308;28;20081;-77
2023/04/05 09:54:07;;;;;;;5.90;5.40;;;;;;;12.20;47.33;99200.09;4992168;28;20066;-77
2023/04/05 09:56:35;;;;;;;8.52;7.30;;;;;;;12.15;47.17;99216.56;4992487;28;20046;-75
2023/04/05 09:59:11;;;;;;;6.20;5.60;;;;;;;11.18;46.79;99057.09;4992525;28;20109;-77
2023/04/05 10:01:38;;;;;;;7.30;6.57;;;;;;;11.46;47.48;99092.22;4990682;28;20065;-77
2023/04/05 10:04:04;;;;;;;7.07;5.65;;;;;;;11.60;47.35;99146.00;4974828;28;20486;-75
2023/04/05 10:06:40;;;;;;;9.85;7.68;;;;;;;12.03;47.04;99205.72;4992192;28;20034;-75
2023/04/05 10:09:08;;;;;;;6.45;5.75;;;;;;;11.31;47.26;99091.53;4991320;28;20033;-75
2023/04/05 10:11:35;;;;;;;7.10;6.35;;;;;;;11.83;47.73;99210.03;4987985;28;20046;-76
2023/04/05 10:14:08;;;;;;;6.50;5.90;;;;;;;11.64;47.30;99184.25;4993654;28;20058;-76
2023/04/05 10:17:18;;;;;;;7.72;7.03;;;;;;;11.62;47.48;99216.19;5007752;28;20030;-77
2023/04/05 10:20:06;;;;;;;9.13;7.40;;;;;;;10.85;47.99;99077.94;4991785;28;20026;-76
2023/04/05 10:22:39;;;;;;;7.65;6.68;;;;;;;10.68;47.69;99062.38;4991816;28;20479;-76
2023/04/05 10:25:27;;;;;;;8.05;7.25;;;;;;;11.55;47.81;99188.88;4990516;28;20415;-76
2023/04/05 10:27:55;;;;;;;8.80;7.30;;;;;;;11.60;47.85;99207.63;4991932;28;20034;-76
2023/04/05 10:30:23;;;;;;;8.02;7.15;;;;;;;10.86;47.72;99079.59;4991834;28;20116;-76
2023/04/05 10:32:58;;;;;;;7.40;5.90;;;;;;;11.67;47.41;99218.25;4989598;28;20034;-75
2023/04/05 10:35:33;;;;;;;7.30;6.03;;;;;;;11.65;47.73;99209.69;5004615;28;20034;-76
2023/04/05 10:38:11;;;;;;;7.00;6.38;;;;;;;11.41;47.56;99182.69;4989951;28;20503;-76
2023/04/05 10:40:42;;;;;;;7.80;7.00;;;;;;;11.68;47.80;99223.34;4989761;28;20510;-76
2023/04/05 10:43:15;;;;;;;6.80;6.10;;;;;;;11.64;47.65;99216.00;4985194;28;20511;-76
2023/04/05 10:45:43;;;;;;;6.55;5.95;;;;;;;11.61;47.36;99213.72;4987368;28;20025;-76
2023/04/05 10:48:24;;;;;;;6.88;5.72;;;;;;;11.61;47.12;99206.63;5005273;28;20034;-76
2023/04/05 10:50:49;;;;;;;6.88;6.15;;;;;;;11.60;47.09;99204.16;4983248;28;20480;-76
2023/04/05 10:53:16;;;;;;;5.35;4.85;;;;;;;11.12;46.64;99128.16;4988293;28;20061;-77
2023/04/05 10:55:44;;;;;;;6.55;5.95;;;;;;;11.71;46.81;99208.91;4989934;28;20030;-76
2023/04/05 10:58:11;;;;;;;10.35;7.43;;;;;;;11.50;46.90;99164.84;4991747;28;20037;-77
2023/04/05 11:00:37;;;;;;;7.10;5.80;;;;;;;11.78;47.32;99196.59;4991831;28;20050;-77
2023/04/05 11:03:02;;;;;;;7.00;6.30;;;;;;;11.90;46.55;99213.56;4990382;28;20089;-76
2023/04/05 11:05:37;;;;;;;7.18;5.38;;;;;;;11.08;46.58;99067.97;4986945;28;20042;-77
2023/04/05 11:08:05;;;;;;;8.95;6.35;;;;;;;11.50;47.12;99125.19;4990440;28;20105;-77
2023/04/05 11:10:35;;;;;;;6.15;5.47;;;;;;;11.92;46.87;99221.31;4989187;28;20026;-76
2023/04/05 11:13:01;;;;;;;5.70;5.18;;;;;;;11.82;47.20;99216.34;4990211;28;20038;-76
2023/04/05 11:15:26;;;;;;;6.47;5.40;;;;;;;11.71;47.59;99215.03;4987317;28;20496;-77
2023/04/05 11:18:11;;;;;;;7.45;6.20;;;;;;;11.68;48.06;99218.06;4988911;28;20053;-76
2023/04/05 11:20:56;;;;;;;12.57;10.48;;;;;;;11.58;48.04;99222.88;4985227;28;20026;-75
2023/04/05 11:23:23;;;;;;;7.43;6.68;;;;;;;11.48;48.56;99227.66;4988884;28;20030;-76
2023/04/05 11:25:53;;;;;;;7.95;6.32;;;;;;;11.37;48.89;99218.44;4987595;28;20030;-76
2023/04/05 11:28:40;;;;;;;6.82;6.13;;;;;;;10.89;50.88;99177.75;4988429;28;20505;-76
2023/04/05 11:31:17;;;;;;;4.50;4.10;;;;;;;10.67;50.19;99155.78;4987575;28;20271;-76
2023/04/05 11:33:43;;;;;;;11.73;4.43;;;;;;;11.12;50.56;99227.75;4990796;28;20049;-75
2023/04/05 11:36:09;;;;;;;6.35;4.82;;;;;;;10.45;50.82;99125.13;4990607;28;20038;-77
2023/04/05 11:38:35;;;;;;;7.07;6.38;;;;;;;10.98;50.94;99210.94;4995454;28;20041;-76
2023/04/05 11:41:20;;;;;;;6.55;5.60;;;;;;;11.04;51.32;99204.91;4973693;28;20030;-77
2023/04/05 11:43:51;;;;;;;6.63;5.95;;;;;;;10.50;51.84;99091.88;4991120;28;20057;-77